Time;durP1;ratioP1;P1;durP2;ratioP2;P2;SDS_P1;SDS_P2;PMS_P1;PMS_P2;Temp;Humidity;BMP_temperature;BMP_pressure;BME280_temperature;BME280_humidity;BME280_pressure;Samples;Min_cycle;Max_cycle;Signal;HPM_P1;HPM_P2
2023/12/25 00:00:30;;;;;;;11.40;2.17;;;;;;;-145.18;100.00;47039.34;5037344;28;20065;-78
2023/12/25 00:02:55;;;;;;;9.33;1.73;;;;;;;-145.18;100.00;47033.50;5048069;28;20041;-79
2023/12/25 00:05:21;;;;;;;13.40;1.93;;;;;;;-145.18;100.00;47035.44;5037815;28;20377;-80
2023/12/25 00:07:46;;;;;;;11.13;2.13;;;;;;;-145.18;100.00;47037.41;5036525;28;20061;-79
2023/12/25 00:10:11;;;;;;;14.33;2.07;;;;;;;-145.18;100.00;47035.44;5045023;28;20037;-80
2023/12/25 00:12:37;;;;;;;11.40;2.87;;;;;;;-145.18;100.00;47041.31;5051454;28;20025;-79
2023/12/25 00:15:03;;;;;;;12.80;2.07;;;;;;;-145.18;100.00;47035.44;5052290;28;20403;-79
2023/12/25 00:17:28;;;;;;;11.23;2.93;;;;;;;-145.18;100.00;47037.41;5051582;28;20092;-79
2023/12/25 00:19:54;;;;;;;16.57;2.47;;;;;;;-145.18;100.00;47035.44;5050411;28;20493;-80
2023/12/25 00:22:19;;;;;;;16.27;2.23;;;;;;;-145.18;100.00;47039.34;5039793;28;20071;-80
2023/12/25 00:24:44;;;;;;;16.77;2.67;;;;;;;-145.18;100.00;47037.41;5051313;28;20378;-79
2023/12/25 00:27:10;;;;;;;10.63;1.90;;;;;;;-145.18;100.00;47035.44;5049131;28;20143;-79
2023/12/25 00:29:35;;;;;;;15.57;2.47;;;;;;;-145.18;100.00;47039.34;5050821;28;20033;-80
2023/12/25 00:32:01;;;;;;;14.20;2.43;;;;;;;-145.18;100.00;47035.44;5049006;28;20017;-80
2023/12/25 00:34:26;;;;;;;10.30;1.93;;;;;;;-145.18;100.00;47031.53;5050750;28;20111;-80
2023/12/25 00:36:51;;;;;;;19.83;1.80;;;;;;;-145.18;100.00;47035.44;5048574;28;20597;-89
2023/12/25 00:39:17;;;;;;;15.03;2.90;;;;;;;-145.18;100.00;47031.53;5053567;28;20036;-87
2023/12/25 00:41:42;;;;;;;12.93;2.77;;;;;;;-145.18;100.00;47027.63;5052858;28;20088;-87
2023/12/25 00:44:08;;;;;;;16.80;3.40;;;;;;;-145.18;100.00;47031.53;5054622;28;20037;-88
2023/12/25 00:46:33;;;;;;;18.73;2.87;;;;;;;-145.18;100.00;47033.50;5051450;28;20068;-89
2023/12/25 00:48:58;;;;;;;52.10;3.10;;;;;;;-145.18;100.00;47033.50;5049800;28;20035;-89
2023/12/25 00:51:25;;;;;;;19.63;2.50;;;;;;;-145.18;100.00;47033.50;5049586;28;20066;-89
2023/12/25 00:53:50;;;;;;;16.80;2.40;;;;;;;-145.18;100.00;47031.53;5053436;28;20067;-89
2023/12/25 00:56:15;;;;;;;15.43;2.27;;;;;;;-145.18;100.00;47029.59;5049940;28;20512;-88
2023/12/25 00:58:41;;;;;;;13.47;2.67;;;;;;;-145.18;100.00;47029.59;5053511;28;20033;-88
2023/12/25 01:01:07;;;;;;;18.33;3.67;;;;;;;-145.18;100.00;47027.63;5053110;28;20036;-89
2023/12/25 01:03:32;;;;;;;16.10;3.60;;;;;;;-145.18;100.00;47029.59;5051895;28;20059;-89
2023/12/25 01:05:58;;;;;;;18.43;2.53;;;;;;;-145.18;100.00;47027.63;5039777;28;20045;-87
2023/12/25 01:08:23;;;;;;;14.07;2.67;;;;;;;-145.18;100.00;47027.63;5047891;28;20060;-90
2023/12/25 01:10:48;;;;;;;18.90;2.13;;;;;;;-145.18;100.00;47025.69;5049938;28;20083;-88
2023/12/25 01:13:14;;;;;;;23.53;2.97;;;;;;;-145.18;100.00;47027.63;5048829;28;20033;-87
2023/12/25 01:15:39;;;;;;;17.33;3.77;;;;;;;-145.18;100.00;47031.53;5047693;28;20077;-88
2023/12/25 01:18:04;;;;;;;20.30;2.53;;;;;;;-145.18;100.00;47025.69;5048134;28;20041;-87
2023/12/25 01:20:30;;;;;;;24.23;3.27;;;;;;;-145.18;100.00;47025.69;5047598;28;20048;-88
2023/12/25 01:22:55;;;;;;;18.43;2.40;;;;;;;-145.18;100.00;47027.63;5047508;28;20120;-88
2023/12/25 01:25:21;;;;;;;15.13;2.17;;;;;;;-145.18;100.00;47027.63;5051440;28;20061;-88
2023/12/25 01:27:46;;;;;;;17.93;3.83;;;;;;;-145.18;100.00;47027.63;5044898;28;20040;-87
2023/12/25 01:30:12;;;;;;;21.47;2.67;;;;;;;-145.18;100.00;47027.63;5038777;28;20465;-88
2023/12/25 01:32:37;;;;;;;15.27;2.80;;;;;;;-145.18;100.00;47027.63;5042855;28;20029;-87
2023/12/25 01:35:04;;;;;;;15.47;3.10;;;;;;;-145.18;100.00;47023.72;5049806;28;20037;-87
2023/12/25 01:37:30;;;;;;;20.50;3.37;;;;;;;-145.18;100.00;47025.69;5051159;28;20615;-89
2023/12/25 01:39:56;;;;;;;30.53;3.17;;;;;;;-145.18;100.00;47027.63;5047853;28;20053;-88
2023/12/25 01:42:21;;;;;;;20.07;3.17;;;;;;;-145.18;100.00;47025.69;5062832;28;20124;-88
2023/12/25 01:44:47;;;;;;;15.50;3.10;;;;;;;-145.18;100.00;47027.63;5048102;28;20086;-88
2023/12/25 01:47:15;;;;;;;18.10;2.80;;;;;;;-145.18;100.00;47027.63;5049133;28;20033;-88
2023/12/25 01:49:41;;;;;;;23.10;3.47;;;;;;;-145.18;100.00;47031.53;5039011;28;20029;-87
2023/12/25 01:52:07;;;;;;;19.70;4.33;;;;;;;-145.18;100.00;47025.69;5043003;28;20025;-85
2023/12/25 01:54:33;;;;;;;22.80;4.13;;;;;;;-145.18;100.00;47031.53;5045014;28;20490;-87
2023/12/25 01:56:59;;;;;;;25.13;3.70;;;;;;;-145.18;100.00;47029.59;5044988;28;20041;-87
2023/12/25 01:59:28;;;;;;;19.60;4.03;;;;;;;-145.18;100.00;47029.59;5041759;28;20049;-88
2023/12/25 02:01:54;;;;;;;22.27;3.10;;;;;;;-145.18;100.00;47025.69;5049548;28;20044;-88
2023/12/25 02:04:19;;;;;;;19.93;2.97;;;;;;;-145.18;100.00;47027.63;5031333;28;20091;-87
2023/12/25 02:06:46;;;;;;;19.00;2.87;;;;;;;-145.18;100.00;47027.63;5040667;28;20061;-89
2023/12/25 02:09:12;;;;;;;16.17;3.27;;;;;;;-145.18;100.00;47025.69;5051119;28;20029;-88
2023/12/25 02:11:40;;;;;;;16.60;2.47;;;;;;;-145.18;100.00;47023.72;5051152;28;20041;-87
2023/12/25 02:14:07;;;;;;;19.50;2.43;;;;;;;-145.18;100.00;47019.81;5051242;28;20025;-89
2023/12/25 02:16:33;;;;;;;14.53;3.03;;;;;;;-145.18;100.00;47023.72;5048819;28;20033;-87
2023/12/25 02:18:59;;;;;;;20.53;2.63;;;;;;;-145.18;100.00;47019.81;5050671;28;20045;-88
2023/12/25 02:21:25;;;;;;;14.93;2.37;;;;;;;-145.18;100.00;47023.72;5052025;28;20037;-87
2023/12/25 02:23:58;;;;;;;17.10;2.63;;;;;;;-145.18;100.00;47019.81;5050390;28;20110;-87
2023/12/25 02:26:23;;;;;;;12.53;1.63;;;;;;;-145.18;100.00;47019.81;5052317;28;20032;-87
2023/12/25 02:28:49;;;;;;;21.07;2.70;;;;;;;-145.18;100.00;47021.78;5048321;28;20042;-88
2023/12/25 02:31:14;;;;;;;14.80;2.73;;;;;;;-145.18;100.00;47023.72;5043636;28;20462;-89
2023/12/25 02:33:39;;;;;;;21.70;3.67;;;;;;;-145.18;100.00;47019.81;5051313;28;20029;-88
2023/12/25 02:36:05;;;;;;;14.63;2.67;;;;;;;-145.18;100.00;47019.81;5041255;28;20083;-88
2023/12/25 02:38:30;;;;;;;21.30;2.80;;;;;;;-145.18;100.00;47019.81;5049497;28;20508;-88
2023/12/25 02:40:56;;;;;;;18.57;3.00;;;;;;;-145.18;100.00;47019.81;5051076;28;20032;-88
2023/12/25 02:43:21;;;;;;;15.77;3.23;;;;;;;-145.18;100.00;47015.91;5042223;28;20037;-88
2023/12/25 02:45:47;;;;;;;11.40;2.03;;;;;;;-145.18;100.00;47019.81;5047526;28;20103;-88
2023/12/25 02:48:12;;;;;;;17.33;2.20;;;;;;;-145.18;100.00;47017.88;5064444;28;20029;-88
2023/12/25 02:50:38;;;;;;;22.30;2.67;;;;;;;-145.18;100.00;47015.91;5051742;28;20037;-87
2023/12/25 02:53:06;;;;;;;19.03;2.80;;;;;;;-145.18;100.00;47015.91;5037420;28;20033;-88
2023/12/25 02:55:31;;;;;;;16.17;2.50;;;;;;;-145.18;100.00;47019.81;5041098;28;20033;-87
2023/12/25 02:57:57;;;;;;;14.80;1.97;;;;;;;-145.18;100.00;47021.78;5049303;28;20060;-79
2023/12/25 03:00:22;;;;;;;16.53;3.77;;;;;;;-145.18;100.00;47017.88;5039762;28;20453;-79
2023/12/25 03:02:47;;;;;;;14.10;2.40;;;;;;;-145.18;100.00;47013.97;5036950;28;20049;-79
2023/12/25 03:05:13;;;;;;;16.33;2.30;;;;;;;-145.18;100.00;47019.81;5050460;28;20057;-79
2023/12/25 03:07:38;;;;;;;16.07;2.53;;;;;;;-145.18;100.00;47015.91;5039956;28;20433;-79
2023/12/25 03:10:04;;;;;;;19.27;3.23;;;;;;;-145.18;100.00;47019.81;5043406;28;20029;-79
2023/12/25 03:12:29;;;;;;;17.07;2.43;;;;;;;-145.18;100.00;47019.81;5039433;28;20071;-79
2023/12/25 03:14:55;;;;;;;14.33;2.50;;;;;;;-145.18;100.00;47017.88;5053984;28;20473;-79
2023/12/25 03:17:20;;;;;;;13.07;1.70;;;;;;;-145.18;100.00;47019.81;5054155;28;20029;-79
2023/12/25 03:19:46;;;;;;;15.27;2.37;;;;;;;-145.18;100.00;47021.78;5054166;28;20497;-80
2023/12/25 03:22:11;;;;;;;19.93;2.40;;;;;;;-145.18;100.00;47023.72;5052985;28;20037;-79
2023/12/25 03:24:36;;;;;;;12.87;2.13;;;;;;;-145.18;100.00;47023.72;5053155;28;20033;-78
2023/12/25 03:27:02;;;;;;;14.63;2.60;;;;;;;-145.18;100.00;47021.78;5052003;28;20428;-79
2023/12/25 03:29:28;;;;;;;11.40;2.20;;;;;;;-145.18;100.00;47025.69;5041476;28;20029;-79
2023/12/25 03:31:53;;;;;;;10.07;1.73;;;;;;;-145.18;100.00;47023.72;5045475;28;20037;-79
2023/12/25 03:34:19;;;;;;;13.93;3.10;;;;;;;-145.18;100.00;47019.81;5046776;28;20082;-79
2023/12/25 03:36:45;;;;;;;14.57;2.00;;;;;;;-145.18;100.00;47019.81;5044545;28;20103;-79
2023/12/25 03:39:11;;;;;;;17.20;2.50;;;;;;;-145.18;100.00;47019.81;5034669;28;20519;-80
2023/12/25 03:41:36;;;;;;;16.70;2.20;;;;;;;-145.18;100.00;47023.72;5035153;28;20193;-79
2023/12/25 03:44:02;;;;;;;13.57;2.20;;;;;;;-145.18;100.00;47023.72;5044420;28;20378;-79
2023/12/25 03:46:28;;;;;;;15.67;2.43;;;;;;;-145.18;100.00;47025.69;5036895;28;21677;-79
2023/12/25 03:48:53;;;;;;;17.80;2.07;;;;;;;-145.18;100.00;47027.63;5050842;28;20094;-79
2023/12/25 03:51:19;;;;;;;9.10;1.70;;;;;;;-145.18;100.00;47031.53;5042783;28;20040;-78
2023/12/25 03:53:44;;;;;;;13.13;1.90;;;;;;;-145.18;100.00;47031.53;5053436;28;20091;-78
2023/12/25 03:56:11;;;;;;;10.40;1.77;;;;;;;-145.18;100.00;47031.53;5053808;28;20533;-79
2023/12/25 03:58:37;;;;;;;11.43;1.23;;;;;;;-145.18;100.00;47031.53;5052359;28;20069;-79
2023/12/25 04:01:02;;;;;;;14.63;1.83;;;;;;;-145.18;100.00;47031.53;5053214;28;20056;-79
2023/12/25 04:03:28;;;;;;;9.87;2.40;;;;;;;-145.18;100.00;47035.44;5045062;28;20037;-79
2023/12/25 04:05:53;;;;;;;9.47;1.80;;;;;;;-145.18;100.00;47035.44;5042282;28;20037;-81
2023/12/25 04:08:19;;;;;;;18.57;1.93;;;;;;;-145.18;100.00;47031.53;5040213;28;20054;-79
2023/12/25 04:10:44;;;;;;;9.40;2.10;;;;;;;-145.18;100.00;47041.31;5053228;28;20029;-79
2023/12/25 04:13:10;;;;;;;13.20;1.80;;;;;;;-145.18;100.00;47043.28;5050237;28;20039;-79
2023/12/25 04:15:35;;;;;;;13.17;2.00;;;;;;;-145.18;100.00;47039.34;5034018;28;20461;-79
2023/12/25 04:18:00;;;;;;;15.87;1.77;;;;;;;-145.18;100.00;47045.22;5041567;28;20086;-79
2023/12/25 04:20:26;;;;;;;12.67;3.00;;;;;;;-145.18;100.00;47047.19;5034865;28;20079;-79
2023/12/25 04:22:51;;;;;;;13.33;3.10;;;;;;;-145.18;100.00;47043.28;5064466;28;20079;-80
2023/12/25 04:25:16;;;;;;;10.40;1.93;;;;;;;-145.18;100.00;47047.19;5053644;28;20442;-80
2023/12/25 04:27:42;;;;;;;8.47;1.47;;;;;;;-145.18;100.00;47045.22;5051926;28;20029;-78
2023/12/25 04:30:07;;;;;;;9.47;2.30;;;;;;;-145.18;100.00;47047.19;5045238;28;20034;-79
2023/12/25 04:32:33;;;;;;;14.67;1.80;;;;;;;-145.18;100.00;47056.94;5042011;28;20124;-79
2023/12/25 04:34:58;;;;;;;10.13;1.67;;;;;;;-145.18;100.00;47051.09;5051609;28;20029;-78
2023/12/25 04:37:24;;;;;;;8.23;1.47;;;;;;;-145.18;100.00;47055.00;5037526;28;20045;-78
2023/12/25 04:39:49;;;;;;;12.97;2.27;;;;;;;-145.18;100.00;47055.00;5035632;28;20030;-79
2023/12/25 04:42:14;;;;;;;10.67;1.97;;;;;;;-145.18;100.00;47058.91;5037071;28;20112;-80
2023/12/25 04:44:40;;;;;;;12.93;2.07;;;;;;;-145.18;100.00;47056.94;5041030;28;20036;-79
2023/12/25 04:47:05;;;;;;;13.93;2.03;;;;;;;-145.18;100.00;47058.91;5042287;28;20457;-79
2023/12/25 04:49:32;;;;;;;7.23;1.57;;;;;;;-145.18;100.00;47055.00;5037416;28;20474;-79
2023/12/25 04:51:57;;;;;;;4.33;1.00;;;;;;;-145.18;100.00;47056.94;5048655;28;20485;-79
2023/12/25 04:54:22;;;;;;;10.73;1.20;;;;;;;-145.18;100.00;47058.91;5036365;28;20033;-79
2023/12/25 04:56:48;;;;;;;4.10;0.77;;;;;;;-145.18;100.00;47062.81;5042153;28;20025;-80
2023/12/25 04:59:13;;;;;;;7.40;1.10;;;;;;;-145.18;100.00;47056.94;5048699;28;20039;-79
2023/12/25 05:01:38;;;;;;;3.70;0.77;;;;;;;-145.18;100.00;47064.75;5038037;28;20045;-79
2023/12/25 05:04:05;;;;;;;2.97;0.60;;;;;;;-145.18;100.00;47060.84;5036543;28;20073;-80
2023/12/25 05:06:30;;;;;;;3.20;1.20;;;;;;;-145.18;100.00;47058.91;5036519;28;20111;-78
2023/12/25 05:08:56;;;;;;;3.87;0.70;;;;;;;-145.18;100.00;47055.00;5049111;28;20112;-78
2023/12/25 05:11:23;;;;;;;1.03;0.47;;;;;;;-145.18;100.00;47074.53;5037131;28;20116;-79
2023/12/25 05:13:49;;;;;;;0.70;0.30;;;;;;;-145.18;100.00;47070.63;5040262;28;20547;-79
2023/12/25 05:16:14;;;;;;;8.40;0.63;;;;;;;-145.18;100.00;47070.63;5045495;28;20045;-84
2023/12/25 05:18:40;;;;;;;6.40;0.63;;;;;;;-145.18;100.00;47074.53;5047950;28;20029;-83
2023/12/25 05:21:08;;;;;;;7.50;1.47;;;;;;;-145.18;100.00;47068.66;5038350;28;20381;-84
2023/12/25 05:23:33;;;;;;;4.07;0.60;;;;;;;-145.18;100.00;47066.72;5043376;28;20021;-83
2023/12/25 05:25:59;;;;;;;1.63;0.53;;;;;;;-145.18;100.00;47068.66;5044335;28;20107;-78
2023/12/25 05:28:24;;;;;;;3.20;0.47;;;;;;;-145.18;100.00;47070.63;5051341;28;20100;-79
2023/12/25 05:30:49;;;;;;;2.07;0.63;;;;;;;-145.18;100.00;47062.81;5057556;28;20037;-79
2023/12/25 05:33:15;;;;;;;1.60;0.50;;;;;;;-145.18;100.00;47062.81;5045870;28;20890;-79
2023/12/25 05:35:40;;;;;;;0.83;0.50;;;;;;;-145.18;100.00;47060.84;5025810;28;20099;-83
2023/12/25 05:38:05;;;;;;;1.67;0.40;;;;;;;-145.18;100.00;47058.91;5045768;28;20037;-80
2023/12/25 05:40:31;;;;;;;4.93;0.70;;;;;;;-145.18;100.00;47058.91;5039803;28;20079;-80
2023/12/25 05:42:56;;;;;;;6.33;0.83;;;;;;;-145.18;100.00;47055.00;5044996;28;20122;-80
2023/12/25 05:45:23;;;;;;;2.30;0.70;;;;;;;-145.18;100.00;47045.22;5040911;28;20493;-80
2023/12/25 05:47:48;;;;;;;0.40;0.40;;;;;;;-145.18;100.00;47029.59;5046550;28;20496;-80
2023/12/25 05:50:14;;;;;;;2.00;0.50;;;;;;;-145.18;100.00;47035.44;5048392;28;20037;-80
2023/12/25 05:52:40;;;;;;;1.03;0.33;;;;;;;-145.18;100.00;47045.22;5042482;28;20132;-80
2023/12/25 05:55:06;;;;;;;0.50;0.50;;;;;;;-145.18;100.00;47051.09;5047375;28;20051;-79
2023/12/25 05:57:31;;;;;;;2.13;0.53;;;;;;;-145.18;100.00;47055.00;5048799;28;20021;-80
2023/12/25 05:59:57;;;;;;;4.13;0.70;;;;;;;-145.18;100.00;47056.94;5033054;28;20048;-80
2023/12/25 06:02:22;;;;;;;4.63;0.60;;;;;;;-145.18;100.00;47062.81;5044837;28;20037;-79
2023/12/25 06:04:47;;;;;;;2.10;0.40;;;;;;;-145.18;100.00;47060.84;5034787;28;20110;-80
2023/12/25 06:07:13;;;;;;;1.17;0.70;;;;;;;-145.18;100.00;47060.84;5048354;28;20041;-80
2023/12/25 06:09:38;;;;;;;2.30;0.60;;;;;;;-145.18;100.00;47062.81;5042858;28;20117;-79
2023/12/25 06:12:04;;;;;;;4.37;0.80;;;;;;;-145.18;100.00;47060.84;5039188;28;20103;-80
2023/12/25 06:14:30;;;;;;;3.30;0.60;;;;;;;-145.18;100.00;47058.91;5035248;28;20029;-80
2023/12/25 06:16:55;;;;;;;5.73;1.70;;;;;;;-145.18;100.00;47062.81;5038672;28;20439;-80
2023/12/25 06:19:21;;;;;;;4.57;0.80;;;;;;;-145.18;100.00;47056.94;5038905;28;20045;-79
2023/12/25 06:21:46;;;;;;;3.07;1.17;;;;;;;-145.18;100.00;47058.91;5060422;28;20040;-79
2023/12/25 06:24:12;;;;;;;1.83;0.57;;;;;;;-145.18;100.00;47053.03;5046819;28;20029;-78
2023/12/25 06:26:37;;;;;;;5.60;0.70;;;;;;;-145.18;100.00;47053.03;5039602;28;20497;-78
2023/12/25 06:29:04;;;;;;;2.40;0.63;;;;;;;-145.18;100.00;47056.94;5042843;28;20407;-79
2023/12/25 06:31:29;;;;;;;7.23;0.73;;;;;;;-145.18;100.00;47055.00;5059066;28;20059;-80
2023/12/25 06:33:54;;;;;;;9.67;1.43;;;;;;;-145.18;100.00;47051.09;5054465;28;20021;-79
2023/12/25 06:36:20;;;;;;;3.87;0.60;;;;;;;-145.18;100.00;47055.00;5046119;28;20063;-79
2023/12/25 06:38:45;;;;;;;5.37;0.80;;;;;;;-145.18;100.00;47055.00;5054999;28;20470;-78
2023/12/25 06:41:11;;;;;;;2.43;0.73;;;;;;;-145.18;100.00;47051.09;5052885;28;20037;-79
2023/12/25 06:43:36;;;;;;;1.83;0.57;;;;;;;-145.18;100.00;47051.09;5052175;28;20033;-79
2023/12/25 06:46:02;;;;;;;3.57;0.80;;;;;;;-145.18;100.00;47049.13;5052201;28;20028;-80
2023/12/25 06:48:28;;;;;;;4.83;0.70;;;;;;;-145.18;100.00;47049.13;5049805;28;20116;-79
2023/12/25 06:50:54;;;;;;;3.33;0.70;;;;;;;-145.18;100.00;47049.13;5051162;28;20053;-79
2023/12/25 06:53:19;;;;;;;2.70;0.70;;;;;;;-145.18;100.00;47049.13;5050692;28;20116;-79
2023/12/25 06:55:44;;;;;;;2.17;0.50;;;;;;;-145.18;100.00;47051.09;5045091;28;20386;-79
2023/12/25 06:58:10;;;;;;;1.33;0.40;;;;;;;-145.18;100.00;47047.19;5048139;28;20041;-78
2023/12/25 07:00:35;;;;;;;3.23;0.50;;;;;;;-145.18;100.00;47049.13;5052656;28;20083;-78
2023/12/25 07:03:00;;;;;;;2.20;0.40;;;;;;;-145.18;100.00;47053.03;5044650;28;20033;-78
2023/12/25 07:05:26;;;;;;;3.87;0.83;;;;;;;-145.18;100.00;47055.00;5042849;28;20040;-78
2023/12/25 07:07:51;;;;;;;1.13;0.43;;;;;;;-145.18;100.00;47053.03;5042033;28;20124;-78
2023/12/25 07:10:17;;;;;;;1.50;0.60;;;;;;;-145.18;100.00;47055.00;5053333;28;20064;-78
2023/12/25 07:12:44;;;;;;;1.13;0.43;;;;;;;-145.18;100.00;47055.00;5040054;28;20407;-79
2023/12/25 07:15:13;;;;;;;1.83;0.37;;;;;;;-145.18;100.00;47055.00;5052330;28;20053;-78
2023/12/25 07:17:38;;;;;;;0.93;0.30;;;;;;;-145.18;100.00;47053.03;5031946;28;20152;-78
2023/12/25 07:20:04;;;;;;;2.97;0.40;;;;;;;-145.18;100.00;47053.03;5048865;28;20124;-79
2023/12/25 07:22:30;;;;;;;2.50;0.60;;;;;;;-145.18;100.00;47056.94;5048218;28;20029;-79
2023/12/25 07:24:55;;;;;;;5.17;0.60;;;;;;;-145.18;100.00;47055.00;5042908;28;20047;-83
2023/12/25 07:27:20;;;;;;;1.23;0.60;;;;;;;-145.18;100.00;47058.91;5034991;28;20095;-85
2023/12/25 07:29:46;;;;;;;2.00;0.40;;;;;;;-145.18;100.00;47053.03;5038879;28;20048;-82
2023/12/25 07:32:11;;;;;;;2.00;0.57;;;;;;;-145.18;100.00;47058.91;5039402;28;20111;-82
2023/12/25 07:34:37;;;;;;;2.70;0.50;;;;;;;-145.18;100.00;47060.84;5039770;28;20022;-82
2023/12/25 07:37:03;;;;;;;1.07;0.60;;;;;;;-145.18;100.00;47056.94;5040318;28;20394;-84
2023/12/25 07:39:28;;;;;;;1.70;0.50;;;;;;;-145.18;100.00;47056.94;5041022;28;20056;-83
2023/12/25 07:41:55;;;;;;;2.47;0.60;;;;;;;-145.18;100.00;47062.81;5040265;28;20148;-83
2023/12/25 07:44:21;;;;;;;5.67;1.00;;;;;;;-145.18;100.00;47056.94;5025810;28;20033;-81
2023/12/25 07:46:47;;;;;;;3.57;0.90;;;;;;;-145.18;100.00;47053.03;5040682;28;20132;-86
2023/12/25 07:49:12;;;;;;;1.20;0.50;;;;;;;-145.18;100.00;47055.00;5045482;28;20024;-83
2023/12/25 07:51:37;;;;;;;3.13;0.60;;;;;;;-145.18;100.00;47053.03;5045641;28;20116;-80
2023/12/25 07:54:03;;;;;;;1.97;0.70;;;;;;;-145.18;100.00;47053.03;5040568;28;20032;-80
2023/12/25 07:56:28;;;;;;;4.30;0.70;;;;;;;-145.18;100.00;47051.09;5058271;28;20135;-85
2023/12/25 07:58:54;;;;;;;3.17;0.77;;;;;;;-145.18;100.00;47053.03;5043377;28;20048;-86
2023/12/25 08:01:22;;;;;;;1.00;0.50;;;;;;;-145.18;100.00;47045.22;5040123;28;20037;-86
2023/12/25 08:03:49;;;;;;;3.63;0.60;;;;;;;-145.18;100.00;47049.13;5042922;28;20156;-86
2023/12/25 08:06:14;;;;;;;0.37;0.20;;;;;;;-145.18;100.00;47047.19;5045867;28;20032;-87
2023/12/25 08:08:39;;;;;;;6.33;1.33;;;;;;;-145.18;100.00;47047.19;5045072;28;20048;-87
2023/12/25 08:11:05;;;;;;;2.33;0.60;;;;;;;-145.18;100.00;47045.22;5043325;28;20033;-90
2023/12/25 08:13:30;;;;;;;10.17;3.90;;;;;;;-145.18;100.00;47047.19;5040968;28;20058;-85
2023/12/25 08:15:56;;;;;;;7.13;1.10;;;;;;;-145.18;100.00;47049.13;5039115;28;20101;-85
2023/12/25 08:18:21;;;;;;;1.67;0.60;;;;;;;-145.18;100.00;47045.22;5039479;28;20370;-85
2023/12/25 08:20:47;;;;;;;3.63;0.70;;;;;;;-145.18;100.00;47043.28;5054269;28;20052;-84
2023/12/25 08:23:12;;;;;;;1.23;0.43;;;;;;;-145.18;100.00;47039.34;5039181;28;20488;-84
2023/12/25 08:25:38;;;;;;;1.97;0.77;;;;;;;-145.18;100.00;47039.34;5039586;28;20029;-85
2023/12/25 08:28:04;;;;;;;7.77;0.83;;;;;;;-145.18;100.00;47037.41;5057235;28;20436;-85
2023/12/25 08:30:29;;;;;;;2.60;0.50;;;;;;;-145.18;100.00;47039.34;5055755;28;20078;-85
2023/12/25 08:32:55;;;;;;;3.27;0.60;;;;;;;-145.18;100.00;47039.34;5040824;28;20036;-84
2023/12/25 08:35:20;;;;;;;5.60;0.70;;;;;;;-145.18;100.00;47039.34;5040657;28;20096;-85
2023/12/25 08:37:45;;;;;;;6.53;0.90;;;;;;;-145.18;100.00;47039.34;5021844;28;21010;-85
2023/12/25 08:40:11;;;;;;;7.77;1.20;;;;;;;-145.18;100.00;47039.34;5022851;28;20128;-85
2023/12/25 08:42:36;;;;;;;3.43;0.90;;;;;;;-145.18;100.00;47037.41;5037733;28;20041;-85
2023/12/25 08:45:04;;;;;;;6.63;0.80;;;;;;;-145.18;100.00;47033.50;5039691;28;20101;-85
2023/12/25 08:47:29;;;;;;;2.00;0.60;;;;;;;-145.18;100.00;47037.41;5040931;28;20068;-85
2023/12/25 08:49:55;;;;;;;3.70;0.60;;;;;;;-145.18;100.00;47037.41;5039355;28;20037;-85
2023/12/25 08:52:21;;;;;;;1.63;0.50;;;;;;;-145.18;100.00;47035.44;5042618;28;20387;-84
2023/12/25 08:54:47;;;;;;;1.00;0.60;;;;;;;-145.18;100.00;47035.44;5059731;28;20028;-86
2023/12/25 08:57:12;;;;;;;2.17;0.60;;;;;;;-145.18;100.00;47039.34;5025303;28;20037;-83
2023/12/25 08:59:38;;;;;;;3.27;0.67;;;;;;;-145.18;100.00;47039.34;5048217;28;20068;-82
2023/12/25 09:02:04;;;;;;;4.47;0.70;;;;;;;-145.18;100.00;47039.34;5044179;28;20037;-86
2023/12/25 09:04:29;;;;;;;1.83;0.43;;;;;;;-145.18;100.00;47041.31;5040836;28;20394;-86
2023/12/25 09:06:54;;;;;;;2.83;0.77;;;;;;;-145.18;100.00;47041.31;5060734;28;20136;-92
2023/12/25 09:09:22;;;;;;;2.67;0.60;;;;;;;-145.18;100.00;47037.41;5045180;28;20041;-90
2023/12/25 09:11:48;;;;;;;1.83;0.40;;;;;;;-145.18;100.00;47039.34;5046716;28;20129;-89
2023/12/25 09:14:13;;;;;;;3.50;0.70;;;;;;;-145.18;100.00;47039.34;5047597;28;20021;-90
2023/12/25 09:16:39;;;;;;;7.30;0.70;;;;;;;-145.18;100.00;47035.44;5066772;28;20361;-80
2023/12/25 09:19:04;;;;;;;7.50;0.50;;;;;;;-145.18;100.00;47041.31;5060412;28;20695;-80
2023/12/25 09:21:36;;;;;;;2.80;0.77;;;;;;;-145.18;100.00;47031.53;5050510;28;20440;-80
2023/12/25 09:24:02;;;;;;;0.93;0.50;;;;;;;-145.18;100.00;47035.44;5033449;28;20087;-80
2023/12/25 09:26:27;;;;;;;4.03;0.50;;;;;;;-145.18;100.00;47031.53;5044732;28;20106;-80
2023/12/25 09:28:52;;;;;;;3.70;0.77;;;;;;;-145.18;100.00;47025.69;5030635;28;20030;-80
2023/12/25 09:31:18;;;;;;;6.27;0.70;;;;;;;-145.18;100.00;47027.63;5048125;28;20040;-80
2023/12/25 09:33:43;;;;;;;7.10;0.87;;;;;;;-145.18;100.00;47021.78;5040880;28;20485;-80
2023/12/25 09:36:09;;;;;;;6.73;1.20;;;;;;;-145.18;100.00;47017.88;5034924;28;20021;-81
2023/12/25 09:38:34;;;;;;;6.67;0.70;;;;;;;-145.18;100.00;47021.78;5048336;28;20071;-80
2023/12/25 09:41:00;;;;;;;4.83;0.80;;;;;;;-145.18;100.00;47017.88;5054549;28;20485;-79
2023/12/25 09:43:27;;;;;;;7.53;1.10;;;;;;;-145.18;100.00;47012.00;5063751;28;20041;-80
2023/12/25 09:45:54;;;;;;;5.80;0.60;;;;;;;-145.18;100.00;47000.28;5049599;28;20032;-79
2023/12/25 09:48:19;;;;;;;7.30;0.90;;;;;;;-145.18;100.00;46996.38;5049403;28;20067;-79
2023/12/25 09:50:45;;;;;;;6.90;1.03;;;;;;;-145.18;100.00;47000.28;5048624;28;20037;-80
2023/12/25 09:53:10;;;;;;;7.00;1.07;;;;;;;-145.18;100.00;46998.34;5049653;28;20485;-80
2023/12/25 09:55:36;;;;;;;7.60;0.80;;;;;;;-145.18;100.00;47002.25;5050178;28;20025;-80
2023/12/25 09:58:07;;;;;;;3.83;0.80;;;;;;;-145.18;100.00;47000.28;5048511;28;20087;-80
2023/12/25 10:00:33;;;;;;;6.63;1.10;;;;;;;-145.18;100.00;47002.25;5047617;28;20450;-80
2023/12/25 10:03:00;;;;;;;11.40;1.30;;;;;;;-145.18;100.00;47004.19;5048301;28;20075;-79
2023/12/25 10:05:26;;;;;;;10.17;2.43;;;;;;;-145.18;100.00;47008.09;5051453;28;20520;-78
2023/12/25 10:07:51;;;;;;;7.13;1.23;;;;;;;-145.18;100.00;47012.00;5051031;28;20129;-80
2023/12/25 10:10:17;;;;;;;8.07;1.47;;;;;;;-145.18;100.00;47012.00;5027637;28;20033;-80
2023/12/25 10:12:44;;;;;;;2.80;0.80;;;;;;;-145.18;100.00;47013.97;5031356;28;20150;-80
2023/12/25 10:15:11;;;;;;;3.23;0.77;;;;;;;-145.18;100.00;47008.09;5048746;28;20044;-80
2023/12/25 10:17:37;;;;;;;6.57;1.03;;;;;;;-145.18;100.00;47008.09;5051118;28;20033;-80
2023/12/25 10:20:04;;;;;;;6.33;0.70;;;;;;;-145.18;100.00;47012.00;5029359;28;20481;-80
2023/12/25 10:22:30;;;;;;;9.27;1.50;;;;;;;-145.18;100.00;47012.00;5067966;28;20033;-81
2023/12/25 10:25:06;;;;;;;6.97;0.80;;;;;;;-145.18;100.00;47013.97;5052885;28;20040;-80
2023/12/25 10:27:36;;;;;;;4.22;0.90;;;;;;;-145.18;100.00;47010.06;5048412;28;20043;-86
2023/12/25 10:30:03;;;;;;;4.80;1.43;;;;;;;-145.18;100.00;47008.09;5047509;28;20040;-89
2023/12/25 10:32:29;;;;;;;4.20;0.90;;;;;;;-145.18;100.00;47002.25;5055576;28;20036;-89
2023/12/25 10:35:14;;;;;;;9.87;1.07;;;;;;;-145.18;100.00;46996.38;5055792;28;20040;-89
2023/12/25 10:37:41;;;;;;;5.30;0.70;;;;;;;-145.18;100.00;47002.25;5056138;28;20025;-89
2023/12/25 10:40:24;;;;;;;6.20;0.80;;;;;;;-145.18;100.00;46998.34;5051436;28;20069;-89
2023/12/25 10:42:58;;;;;;;5.73;0.70;;;;;;;-145.18;100.00;46998.34;5044166;28;20029;-89
2023/12/25 10:45:27;;;;;;;6.67;0.70;;;;;;;-145.18;100.00;46996.38;5048662;28;20037;-88
2023/12/25 10:48:00;;;;;;;6.67;0.70;;;;;;;-145.18;100.00;47002.25;5046377;28;20125;-88
2023/12/25 10:50:27;;;;;;;2.53;0.83;;;;;;;-145.18;100.00;47000.28;5030406;28;20056;-88
2023/12/25 10:52:57;;;;;;;5.20;0.70;;;;;;;-145.18;100.00;47000.28;5053678;28;20043;-89
2023/12/25 10:55:35;;;;;;;3.03;0.70;;;;;;;-145.18;100.00;47002.25;5048478;28;20487;-85
2023/12/25 10:58:03;;;;;;;6.37;0.90;;;;;;;-145.18;100.00;47006.16;5045534;28;20125;-87
2023/12/25 11:00:30;;;;;;;3.27;0.60;;;;;;;-145.18;100.00;47000.28;5044334;28;20037;-87